Etusivu
METAR-TAF:

METAR-TAF

Lentoasemat :

Mikkelin lentoasema

Mikkeli, Suomi

Leveyspiiri: 61-44N, Pituuspiiri: 027-18E, korkeus merenpinnasta: 138 m

Tämänhetkinen sää

Tämä raportti tehtiin 25 minuuttia sitten, kello 07.50 UTC
Tuuli 8 kn lännestä/lounaasta, vaihdellen lounaan ja lännen/luoteen välillä
Lämpötila 15°C
Kosteus 31%
Ilmanpaine 1029 hPa
Näkyvyys 10 km tai enemmän
ei pilviä alle 1500 m:ssä eikä cumulonimbus-pilviä

METAR: EFMI 240750Z AUTO 25008KT 220V290 CAVOK 15/M02 Q1029

Aika: 11:15 (08:15 UTC)


TAF: puuttuu

Säähavainnot ja -ennusteet yli 4000 lentoasemalta (METAR- ja TAF-raportit).

Käytössä olevat sääasemat on merkitty karttaan keltaisilla ja punaisilla pisteillä.

Aseta hiiri pisteen päälle nähdäksesi sääaseman nimen.

Klikkaa sitten nähdäksesi säähavainnot ja -ennusteet.

Kartan vaihtaminen: klikkaa mustalla rastilla varustettuja vihreitä pisteitä, niin voit zoomata sisään; viivalla varustettua vihreää pistettä, niin voit zoomata ulos tai vihreitä nuolia, niin pääset viereisille kartoille.


METAR-TAF: